Time;durP1;ratioP1;P1;durP2;ratioP2;P2;SDS_P1;SDS_P2;PMS_P1;PMS_P2;Temp;Humidity;BMP_temperature;BMP_pressure;BME280_temperature;BME280_humidity;BME280_pressure;Samples;Min_cycle;Max_cycle;Signal;HPM_P1;HPM_P2
2022/04/13 00:01:11;;;;;;;;;;;;;;;16.28;28.44;99580.38;4467998;32;34537;-84
2022/04/13 00:03:38;;;;;;;;;;;;;;;16.30;28.66;99573.41;4468016;32;34283;-83
2022/04/13 00:06:06;;;;;;;;;;;;;;;16.31;28.39;99589.97;4462711;32;34420;-84
2022/04/13 00:08:34;;;;;;;;;;;;;;;16.49;28.13;99578.56;4452303;32;33837;-84
2022/04/13 00:11:01;;;;;;;;;;;;;;;16.31;28.28;99589.97;4452229;32;34320;-82
2022/04/13 00:13:28;;;;;;;;;;;;;;;16.30;28.15;99590.88;4438091;32;35189;-81
2022/04/13 00:15:55;;;;;;;;;;;;;;;16.05;28.24;99582.22;4455117;32;35069;-82
2022/04/13 00:18:23;;;;;;;;;;;;;;;15.86;28.70;99590.97;4453377;32;32774;-82
2022/04/13 00:20:50;;;;;;;;;;;;;;;16.13;28.13;99584.81;4466976;32;34014;-84
2022/04/13 00:23:18;;;;;;;;;;;;;;;15.75;28.66;99591.00;4453094;32;33298;-84
2022/04/13 00:25:47;;;;;;;;;;;;;;;15.44;29.42;99598.81;4465241;32;34381;-83
2022/04/13 00:28:14;;;;;;;;;;;;;;;15.85;29.51;99592.72;4437784;32;32669;-86
2022/04/13 00:30:42;;;;;;;;;;;;;;;15.35;29.71;99584.91;4452051;32;33617;-84
2022/04/13 00:33:11;;;;;;;;;;;;;;;15.80;28.70;99586.66;4452109;32;35346;-84
2022/04/13 00:35:38;;;;;;;;;;;;;;;15.89;29.00;99586.62;4452914;32;33680;-84
2022/04/13 00:38:05;;;;;;;;;;;;;;;15.89;29.06;99589.22;4467628;32;34349;-86
2022/04/13 00:40:33;;;;;;;;;;;;;;;15.81;29.19;99593.59;4453479;32;33865;-83
2022/04/13 00:43:00;;;;;;;;;;;;;;;15.99;28.76;99583.13;4453657;32;33546;-83
2022/04/13 00:45:28;;;;;;;;;;;;;;;15.60;29.04;99593.59;4467102;32;34537;-84
2022/04/13 00:47:55;;;;;;;;;;;;;;;15.79;29.08;99593.59;4438001;32;31683;-84
2022/04/13 00:50:23;;;;;;;;;;;;;;;15.41;29.19;99588.34;4437860;32;33831;-83
2022/04/13 00:52:50;;;;;;;;;;;;;;;15.57;29.49;99597.97;4437737;32;34590;-84
2022/04/13 00:55:17;;;;;;;;;;;;;;;15.75;29.29;99596.22;4452001;32;35105;-86
2022/04/13 00:57:44;;;;;;;;;;;;;;;15.36;29.63;99592.72;4451441;32;33157;-81
2022/04/13 01:00:12;;;;;;;;;;;;;;;15.50;29.22;99597.97;4467299;32;34256;-82
2022/04/13 01:02:40;;;;;;;;;;;;;;;15.51;29.27;99597.94;4467382;32;34228;-83
2022/04/13 01:05:07;;;;;;;;;;;;;;;15.33;29.89;99600.56;4453022;32;34190;-81
2022/04/13 01:07:35;;;;;;;;;;;;;;;15.19;30.27;99591.84;4454150;32;33705;-81
2022/04/13 01:10:05;;;;;;;;;;;;;;;15.56;29.76;99598.81;4437636;32;34716;-84
2022/04/13 01:12:35;;;;;;;;;;;;;;;15.31;29.53;99594.47;4438525;32;34203;-81
2022/04/13 01:15:03;;;;;;;;;;;;;;;15.50;29.67;99597.97;4438183;32;33892;-82
2022/04/13 01:17:30;;;;;;;;;;;;;;;15.04;29.94;99597.94;4437354;32;33083;-83
2022/04/13 01:19:58;;;;;;;;;;;;;;;15.49;29.37;99601.44;4451753;32;33615;-82
2022/04/13 01:22:25;;;;;;;;;;;;;;;15.41;29.74;99601.44;4451656;32;34307;-81
2022/04/13 01:24:54;;;;;;;;;;;;;;;15.33;29.63;99605.78;4457687;32;35377;-81
2022/04/13 01:27:21;;;;;;;;;;;;;;;15.53;29.57;99609.28;4467064;32;34088;-82
2022/04/13 01:29:49;;;;;;;;;;;;;;;15.60;29.16;99599.69;4467085;32;34132;-82
2022/04/13 01:32:16;;;;;;;;;;;;;;;15.70;28.93;99601.47;4465909;32;34421;-82
2022/04/13 01:34:50;;;;;;;;;;;;;;;15.62;29.05;99604.94;4462174;32;34226;-81
2022/04/13 01:37:18;;;;;;;;;;;;;;;15.58;29.06;99610.16;4451458;32;33672;-85
2022/04/13 01:39:45;;;;;;;;;;;;;;;15.74;28.94;99603.19;4451285;32;34565;-82
2022/04/13 01:42:12;;;;;;;;;;;;;;;15.63;29.01;99602.28;4437201;32;35354;-82
2022/04/13 01:44:42;;;;;;;;;;;;;;;15.27;29.24;99611.03;4455411;32;34644;-82
2022/04/13 01:47:10;;;;;;;;;;;;;;;15.49;28.73;99607.56;4466312;32;32851;-82
2022/04/13 01:49:37;;;;;;;;;;;;;;;15.64;28.74;99608.38;4451393;32;33890;-82
2022/04/13 01:52:05;;;;;;;;;;;;;;;15.65;28.94;99610.16;4451450;32;33820;-82
2022/04/13 01:54:32;;;;;;;;;;;;;;;15.40;28.89;99620.59;4437411;32;35149;-83
2022/04/13 01:56:59;;;;;;;;;;;;;;;15.64;28.84;99617.09;4451096;32;34405;-82
2022/04/13 01:59:27;;;;;;;;;;;;;;;15.31;28.70;99620.59;4450831;32;35019;-83
2022/04/13 02:01:54;;;;;;;;;;;;;;;15.29;28.68;99622.31;4466482;32;34903;-82
2022/04/13 02:04:22;;;;;;;;;;;;;;;15.36;29.29;99621.47;4452442;32;34199;-83
2022/04/13 02:06:50;;;;;;;;;;;;;;;15.39;29.04;99616.25;4466475;32;33998;-82
2022/04/13 02:09:17;;;;;;;;;;;;;;;14.89;29.49;99623.97;4453206;32;34133;-83
2022/04/13 02:11:45;;;;;;;;;;;;;;;14.89;29.50;99623.97;4450977;32;35329;-82
2022/04/13 02:14:12;;;;;;;;;;;;;;;15.02;29.50;99621.41;4450897;32;34633;-82
2022/04/13 02:16:39;;;;;;;;;;;;;;;15.23;29.16;99622.34;4449028;32;33652;-82
2022/04/13 02:19:07;;;;;;;;;;;;;;;15.21;29.10;99622.31;4462328;32;33902;-84
2022/04/13 02:21:34;;;;;;;;;;;;;;;15.20;29.17;99627.56;4452398;32;34871;-82
2022/04/13 02:24:01;;;;;;;;;;;;;;;15.01;28.91;99624.03;4466255;32;34096;-81
2022/04/13 02:26:29;;;;;;;;;;;;;;;15.24;29.43;99626.69;4451992;32;33746;-82
2022/04/13 02:28:56;;;;;;;;;;;;;;;15.09;29.44;99632.75;4455826;32;33860;-82
2022/04/13 02:31:23;;;;;;;;;;;;;;;15.21;29.31;99631.91;4450376;32;33973;-82
2022/04/13 02:33:55;;;;;;;;;;;;;;;15.25;29.47;99624.06;4450518;32;34473;-82
2022/04/13 02:36:23;;;;;;;;;;;;;;;15.09;29.71;99620.56;4450693;32;34243;-81
2022/04/13 02:38:50;;;;;;;;;;;;;;;14.64;30.07;99633.50;4459706;32;34208;-81
2022/04/13 02:41:17;;;;;;;;;;;;;;;14.81;29.86;99623.97;4465810;32;35332;-82
2022/04/13 02:43:44;;;;;;;;;;;;;;;14.93;29.72;99617.94;4467503;32;34135;-82
2022/04/13 02:46:12;;;;;;;;;;;;;;;15.03;29.58;99630.13;4468580;32;33299;-84
2022/04/13 02:48:39;;;;;;;;;;;;;;;14.95;29.49;99629.22;4460210;32;33423;-82
2022/04/13 02:51:06;;;;;;;;;;;;;;;14.69;29.78;99631.75;4452743;32;34843;-82
2022/04/13 02:53:34;;;;;;;;;;;;;;;15.01;29.79;99632.75;4452741;32;34752;-82
2022/04/13 02:56:01;;;;;;;;;;;;;;;14.96;29.75;99626.63;4452685;32;33384;-82
2022/04/13 02:58:28;;;;;;;;;;;;;;;15.02;29.61;99631.00;4444907;32;33863;-82
2022/04/13 03:00:56;;;;;;;;;;;;;;;14.96;29.73;99623.12;4468294;32;33714;-81
2022/04/13 03:03:23;;;;;;;;;;;;;;;15.04;29.43;99629.28;4454462;32;34526;-82
2022/04/13 03:05:50;;;;;;;;;;;;;;;14.56;30.27;99628.25;4447663;32;34286;-81
2022/04/13 03:08:18;;;;;;;;;;;;;;;14.54;29.88;99633.44;4452726;32;33679;-82
2022/04/13 03:10:46;;;;;;;;;;;;;;;14.30;30.67;99633.31;4452513;32;35409;-83
2022/04/13 03:13:14;;;;;;;;;;;;;;;14.57;30.10;99637.81;4452546;32;35315;-81
2022/04/13 03:15:41;;;;;;;;;;;;;;;14.87;30.03;99638.78;4452374;32;33874;-81
2022/04/13 03:18:09;;;;;;;;;;;;;;;14.50;30.47;99649.94;4452604;32;33779;-82
2022/04/13 03:20:36;;;;;;;;;;;;;;;14.68;29.88;99640.47;4452423;32;34413;-82
2022/04/13 03:23:03;;;;;;;;;;;;;;;14.78;29.73;99637.03;4452560;32;34394;-85
2022/04/13 03:25:33;;;;;;;;;;;;;;;14.92;29.63;99643.13;4455684;32;33323;-82
2022/04/13 03:28:00;;;;;;;;;;;;;;;14.92;29.69;99643.13;4468181;32;34032;-81
2022/04/13 03:30:28;;;;;;;;;;;;;;;14.98;29.52;99634.47;4468276;32;33747;-81
2022/04/13 03:32:56;;;;;;;;;;;;;;;14.88;29.83;99644.00;4453025;32;34753;-83
2022/04/13 03:35:24;;;;;;;;;;;;;;;14.99;29.72;99644.91;4468119;32;33460;-81
2022/04/13 03:37:51;;;;;;;;;;;;;;;14.97;29.60;99654.50;4468201;32;34095;-82
2022/04/13 03:40:19;;;;;;;;;;;;;;;14.87;29.59;99657.06;4468134;32;34013;-83
2022/04/13 03:42:46;;;;;;;;;;;;;;;14.78;29.75;99657.91;4465194;32;33798;-82
2022/04/13 03:45:13;;;;;;;;;;;;;;;14.89;29.90;99656.22;4452666;32;33274;-83
2022/04/13 03:47:41;;;;;;;;;;;;;;;14.98;29.52;99656.22;4452419;32;33981;-82
2022/04/13 03:50:08;;;;;;;;;;;;;;;15.12;29.21;99661.50;4452313;32;35316;-81
2022/04/13 03:52:35;;;;;;;;;;;;;;;14.94;29.58;99664.06;4439276;32;34778;-85
2022/04/13 03:55:04;;;;;;;;;;;;;;;15.06;29.84;99656.25;4467103;32;33685;-84
2022/04/13 03:57:31;;;;;;;;;;;;;;;14.94;29.65;99667.53;4467714;32;34283;-81
2022/04/13 03:59:58;;;;;;;;;;;;;;;15.01;29.32;99661.47;4464406;32;34244;-82
2022/04/13 04:02:26;;;;;;;;;;;;;;;15.13;29.16;99664.97;4452554;32;35335;-83
2022/04/13 04:04:53;;;;;;;;;;;;;;;15.16;29.13;99662.38;4451953;32;33784;-82
2022/04/13 04:07:20;;;;;;;;;;;;;;;15.06;29.48;99664.94;4451985;32;34197;-85
2022/04/13 04:09:47;;;;;;;;;;;;;;;15.05;29.88;99670.19;4453732;32;35111;-81
2022/04/13 04:12:15;;;;;;;;;;;;;;;15.08;29.68;99664.97;4467590;32;34854;-82
2022/04/13 04:14:42;;;;;;;;;;;;;;;15.07;29.47;99664.06;4467772;32;33322;-83
2022/04/13 04:17:09;;;;;;;;;;;;;;;15.06;29.50;99670.16;4467643;32;34871;-82
2022/04/13 04:19:36;;;;;;;;;;;;;;;15.02;29.77;99676.25;4466958;32;33925;-82
2022/04/13 04:22:03;;;;;;;;;;;;;;;15.09;29.82;99675.41;4452038;32;33688;-84
2022/04/13 04:24:31;;;;;;;;;;;;;;;15.01;29.97;99681.47;4438917;32;33672;-82
2022/04/13 04:26:58;;;;;;;;;;;;;;;15.08;30.06;99686.72;4451930;32;33986;-84
2022/04/13 04:29:25;;;;;;;;;;;;;;;15.12;30.25;99678.91;4452255;32;33684;-82
2022/04/13 04:31:56;;;;;;;;;;;;;;;15.26;30.11;99679.78;4453241;32;34080;-85
2022/04/13 04:34:24;;;;;;;;;;;;;;;15.34;29.78;99680.66;4465146;32;33651;-82
2022/04/13 04:36:51;;;;;;;;;;;;;;;15.17;30.17;99682.38;4453393;32;34176;-81
2022/04/13 04:39:18;;;;;;;;;;;;;;;15.48;30.77;99694.63;4447337;32;34847;-85
2022/04/13 04:41:47;;;;;;;;;;;;;;;15.82;29.33;99700.78;4437762;32;35162;-85
2022/04/13 04:44:14;;;;;;;;;;;;;;;15.90;29.38;99694.69;4451948;32;35120;-82
2022/04/13 04:46:41;;;;;;;;;;;;;;;16.13;29.29;99694.66;4467514;32;33802;-82
2022/04/13 04:49:08;;;;;;;;;;;;;;;16.58;27.93;99687.59;4467374;32;34853;-83
2022/04/13 04:51:36;;;;;;;;;;;;;;;17.14;27.74;99684.75;4467420;32;34179;-82
2022/04/13 04:54:03;;;;;;;;;;;;;;;17.12;27.42;99686.53;4467431;32;33788;-82
2022/04/13 04:56:31;;;;;;;;;;;;;;;17.75;26.42;99691.38;4452416;32;34113;-84
2022/04/13 04:58:58;;;;;;;;;;;;;;;18.14;25.83;99698.00;4437957;32;33879;-83
2022/04/13 05:01:26;;;;;;;;;;;;;;;18.53;25.56;99689.75;4452235;32;34104;-82
2022/04/13 05:03:53;;;;;;;;;;;;;;;18.47;25.48;99699.44;4437827;32;33004;-82
2022/04/13 05:06:22;;;;;;;;;;;;;;;19.01;24.24;99697.94;4464712;32;34004;-82
2022/04/13 05:08:49;;;;;;;;;;;;;;;17.60;24.42;99707.19;4453143;32;34490;-82
2022/04/13 05:11:17;;;;;;;;;;;;;;;17.18;25.12;99696.09;4442520;32;778237;-82
2022/04/13 05:13:45;;;;;;;;;;;;;;;18.35;24.88;99706.56;4467368;32;33587;-82
2022/04/13 05:16:13;;;;;;;;;;;;;;;18.11;24.15;99702.44;4440860;32;33965;-84
2022/04/13 05:18:42;;;;;;;;;;;;;;;16.74;26.00;99705.00;4451578;32;34299;-82
2022/04/13 05:21:09;;;;;;;;;;;;;;;16.19;26.39;99715.59;4438349;32;34456;-82
2022/04/13 05:23:37;;;;;;;;;;;;;;;16.88;25.58;99703.22;4451626;32;33868;-87
2022/04/13 05:26:04;;;;;;;;;;;;;;;16.97;25.55;99711.06;4451443;32;34085;-82
2022/04/13 05:28:31;;;;;;;;;;;;;;;16.66;26.44;99717.22;4451422;32;34544;-82
2022/04/13 05:30:58;;;;;;;;;;;;;;;16.62;25.83;99716.38;4451565;32;35146;-82
2022/04/13 05:33:26;;;;;;;;;;;;;;;16.07;26.42;99726.06;4466794;32;34431;-82
2022/04/13 05:35:53;;;;;;;;;;;;;;;16.57;26.58;99732.97;4466763;32;34867;-83
2022/04/13 05:38:20;;;;;;;;;;;;;;;17.54;25.56;99726.47;4465272;32;34559;-82
2022/04/13 05:40:48;;;;;;;;;;;;;;;16.19;26.82;99731.28;4451284;32;33799;-83
2022/04/13 05:43:15;;;;;;;;;;;;;;;15.85;27.64;99738.28;4451621;32;33403;-84
2022/04/13 05:45:42;;;;;;;;;;;;;;;16.15;27.57;99737.41;4451313;32;34832;-82
2022/04/13 05:48:10;;;;;;;;;;;;;;;16.34;27.29;99746.97;4450708;32;35250;-82
2022/04/13 05:50:37;;;;;;;;;;;;;;;17.25;26.58;99745.84;4451224;32;34484;-85
2022/04/13 05:53:04;;;;;;;;;;;;;;;16.42;27.30;99745.22;4451288;32;33643;-82
2022/04/13 05:55:32;;;;;;;;;;;;;;;16.09;27.72;99742.63;4451029;32;33917;-82
2022/04/13 05:57:59;;;;;;;;;;;;;;;15.49;29.07;99743.44;4451706;32;35112;-83
2022/04/13 06:00:26;;;;;;;;;;;;;;;16.73;27.59;99742.50;4466752;32;34290;-82
2022/04/13 06:02:54;;;;;;;;;;;;;;;17.01;26.93;99741.59;4466469;32;33653;-86
2022/04/13 06:05:22;;;;;;;;;;;;;;;16.01;28.39;99753.09;4463854;32;34221;-87
2022/04/13 06:07:50;;;;;;;;;;;;;;;16.95;27.34;99749.47;4450947;32;34419;-83
2022/04/13 06:10:19;;;;;;;;;;;;;;;15.24;28.67;99757.28;4450938;32;34357;-83
2022/04/13 06:12:48;;;;;;;;;;;;;;;16.06;28.61;99753.94;4460583;32;34158;-81
2022/04/13 06:15:15;;;;;;;;;;;;;;;15.53;29.04;99771.31;4451351;32;34078;-81
2022/04/13 06:17:44;;;;;;;;;;;;;;;16.79;28.36;99771.34;4452319;32;33990;-82
2022/04/13 06:20:14;;;;;;;;;;;;;;;15.62;29.41;99767.84;4465319;32;34818;-80
2022/04/13 06:22:42;;;;;;;;;;;;;;;15.90;29.06;99766.16;4461527;32;33410;-79
2022/04/13 06:25:10;;;;;;;;;;;;;;;15.20;30.41;99781.66;4467820;32;35124;-80
2022/04/13 06:27:37;;;;;;;;;;;;;;;15.26;30.57;99781.66;4468580;32;35293;-80
2022/04/13 06:30:04;;;;;;;;;;;;;;;15.06;30.72;99782.44;4466503;32;35366;-80
2022/04/13 06:32:32;;;;;;;;;;;;;;;15.19;30.40;99778.19;4467608;32;33580;-84
2022/04/13 06:35:00;;;;;;;;;;;;;;;15.04;30.75;99781.59;4454656;32;34865;-80
2022/04/13 06:37:38;;;;;;;;;;;;;;;15.22;30.80;99779.91;4455235;32;35074;-81
2022/04/13 06:40:06;;;;;;;;;;;;;;;14.68;31.69;99790.09;4452240;32;33935;-82
2022/04/13 06:42:39;;;;;;;;;;;;;;;15.20;30.73;99781.66;4454441;32;33426;-81
2022/04/13 06:45:07;;;;;;;;;;;;;;;15.24;30.84;99791.25;4454521;32;34047;-82
2022/04/13 06:47:34;;;;;;;;;;;;;;;15.00;31.18;99798.13;4468202;32;35173;-82
2022/04/13 06:50:01;;;;;;;;;;;;;;;15.60;30.35;99787.84;4468116;32;34459;-82
2022/04/13 06:52:33;;;;;;;;;;;;;;;15.38;31.51;99789.56;4465092;32;34149;-83
2022/04/13 06:55:00;;;;;;;;;;;;;;;16.24;29.73;99792.31;4439483;32;34185;-82
2022/04/13 06:57:27;;;;;;;;;;;;;;;15.91;31.06;99791.47;4445911;32;34386;-81
2022/04/13 07:00:01;;;;;;;;;;;;;;;16.70;28.87;99789.66;4467879;32;34261;-84
2022/04/13 07:02:36;;;;;;;;;;;;;;;16.00;29.72;99794.06;4454432;32;33352;-81
2022/04/13 07:05:24;;;;;;;;;;;;;;;16.10;29.56;99794.06;4467667;32;34653;-82
2022/04/13 07:07:52;;;;;;;;;;;;;;;15.74;28.47;99790.53;4453787;32;35296;-82
2022/04/13 07:10:27;;;;;;;;;;;;;;;16.11;28.44;99785.34;4468014;32;33757;-82
2022/04/13 07:12:56;;;;;;;;;;;;;;;16.05;27.26;99791.44;4453610;32;33112;-83
2022/04/13 07:15:24;;;;;;;;;;;;;;;15.50;28.55;99797.44;4447957;32;34073;-82
2022/04/13 07:17:52;;;;;;;;;;;;;;;15.33;29.09;99804.31;4452408;32;34061;-81
2022/04/13 07:20:19;;;;;;;;;;;;;;;16.25;27.07;99794.06;4438400;32;34100;-82
2022/04/13 07:22:47;;;;;;;;;;;;;;;16.77;26.12;99797.50;4438499;32;33311;-81
2022/04/13 07:25:14;;;;;;;;;;;;;;;16.47;25.49;99800.16;4452757;32;33814;-82
2022/04/13 07:27:42;;;;;;;;;;;;;;;16.91;24.93;99792.25;4452395;32;35251;-82
2022/04/13 07:30:09;;;;;;;;;;;;;;;17.42;25.42;99792.91;4451127;32;35270;-80
2022/04/13 07:32:36;;;;;;;;;;;;;;;15.80;26.83;99801.03;4452537;32;33124;-80
2022/04/13 07:35:07;;;;;;;;;;;;;;;16.62;25.92;99800.12;4438945;32;33981;-80
2022/04/13 07:37:35;;;;;;;;;;;;;;;17.24;25.55;99801.75;4452435;32;34243;-82
2022/04/13 07:40:02;;;;;;;;;;;;;;;16.48;25.51;99801.91;4452579;32;34356;-81
2022/04/13 07:42:29;;;;;;;;;;;;;;;16.03;26.54;99814.12;4452496;32;34597;-81
2022/04/13 07:44:56;;;;;;;;;;;;;;;15.99;26.83;99821.09;4452051;32;35044;-80
2022/04/13 07:47:26;;;;;;;;;;;;;;;16.98;26.24;99817.56;4452645;32;34599;-80
2022/04/13 07:49:54;;;;;;;;;;;;;;;15.98;27.32;99808.88;4452485;32;34150;-80
2022/04/13 07:52:21;;;;;;;;;;;;;;;16.05;26.81;99807.12;4460749;32;33551;-79
2022/04/13 07:54:48;;;;;;;;;;;;;;;16.04;26.99;99816.72;4467931;32;34055;-80
2022/04/13 07:57:16;;;;;;;;;;;;;;;15.84;27.35;99828.06;4467870;32;35354;-79
2022/04/13 07:59:43;;;;;;;;;;;;;;;16.66;26.72;99821.94;4467462;32;35222;-81
2022/04/13 08:02:10;;;;;;;;;;;;;;;16.57;26.81;99821.97;4467771;32;33679;-80
2022/04/13 08:04:38;;;;;;;;;;;;;;;16.59;25.58;99812.34;4467563;32;35558;-80
2022/04/13 08:07:05;;;;;;;;;;;;;;;17.10;25.64;99815.78;4453402;32;35812;-80
2022/04/13 08:09:34;;;;;;;;;;;;;;;15.56;27.09;99817.47;4467742;32;34139;-80
2022/04/13 08:12:02;;;;;;;;;;;;;;;15.63;27.98;99824.47;4453614;32;33531;-82
2022/04/13 08:14:29;;;;;;;;;;;;;;;15.44;27.03;99822.66;4467530;32;34289;-79
2022/04/13 08:16:56;;;;;;;;;;;;;;;16.72;27.21;99819.31;4472529;32;34305;-81
2022/04/13 08:19:24;;;;;;;;;;;;;;;16.37;26.45;99820.25;4459872;32;35709;-80
2022/04/13 08:21:51;;;;;;;;;;;;;;;16.44;25.91;99815.84;4456592;32;34388;-80
2022/04/13 08:24:18;;;;;;;;;;;;;;;17.57;25.61;99814.69;4461282;32;34232;-81
2022/04/13 08:26:45;;;;;;;;;;;;;;;17.67;24.13;99816.38;4467383;32;33787;-80
2022/04/13 08:29:13;;;;;;;;;;;;;;;17.39;23.87;99813.91;4467503;32;34187;-80
2022/04/13 08:31:40;;;;;;;;;;;;;;;17.84;24.12;99834.66;4463996;32;34157;-79
2022/04/13 08:34:07;;;;;;;;;;;;;;;17.83;23.92;99819.81;4457695;32;33704;-83
2022/04/13 08:36:34;;;;;;;;;;;;;;;17.57;24.43;99814.69;4466891;32;33992;-79
2022/04/13 08:39:01;;;;;;;;;;;;;;;17.09;24.32;99820.16;4456171;32;33822;-81
2022/04/13 08:41:35;;;;;;;;;;;;;;;17.88;24.10;99804.91;4464020;32;34392;-82
2022/04/13 08:44:28;;;;;;;;;;;;;;;17.71;24.33;99815.50;4456544;32;33968;-78
2022/04/13 08:46:56;;;;;;;;;;;;;;;18.83;23.85;99826.03;4418314;32;34354;-80
2022/04/13 08:49:23;;;;;;;;;;;;;;;18.36;23.22;99821.19;4437815;32;34739;-81
2022/04/13 08:52:02;;;;;;;;;;;;;;;17.84;23.84;99822.44;4451962;32;33618;-80
2022/04/13 08:54:35;;;;;;;;;;;;;;;18.15;23.14;99814.38;4451683;32;33807;-79
2022/04/13 08:57:04;;;;;;;;;;;;;;;17.88;24.32;99820.66;4453917;32;35243;-81
2022/04/13 09:00:02;;;;;;;;;;;;;;;17.25;25.52;99815.72;4455339;32;35166;-80
2022/04/13 09:02:43;;;;;;;;;;;;;;;17.34;25.46;99830.53;4467453;32;34043;-80
2022/04/13 09:05:12;;;;;;;;;;;;;;;18.32;23.78;99817.72;4453384;32;34874;-80
2022/04/13 09:07:40;;;;;;;;;;;;;;;17.49;24.09;99820.84;4453460;32;35232;-81
2022/04/13 09:10:10;;;;;;;;;;;;;;;16.71;25.74;99815.84;4453196;32;34497;-80
2022/04/13 09:12:37;;;;;;;;;;;;;;;17.30;26.63;99816.56;4453320;32;34474;-80
2022/04/13 09:15:05;;;;;;;;;;;;;;;17.85;25.89;99815.44;4453408;32;33956;-80
2022/04/13 09:17:32;;;;;;;;;;;;;;;18.33;23.97;99813.31;4467094;32;35269;-79
2022/04/13 09:20:00;;;;;;;;;;;;;;;17.29;24.31;99820.06;4467538;32;34486;-80
2022/04/13 09:22:27;;;;;;;;;;;;;;;16.64;24.79;99815.84;4467516;32;33460;-80
2022/04/13 09:24:54;;;;;;;;;;;;;;;18.05;24.46;99808.31;4452716;32;34016;-85
2022/04/13 09:27:22;;;;;;;;;;;;;;;17.15;25.64;99808.75;4452885;32;34478;-83
2022/04/13 09:29:50;;;;;;;;;;;;;;;18.26;23.71;99803.75;4453035;32;34399;-81
2022/04/13 09:32:18;;;;;;;;;;;;;;;17.66;24.89;99801.53;4466915;32;34356;-81
2022/04/13 09:34:45;;;;;;;;;;;;;;;17.59;24.94;99808.56;4467350;32;34365;-80
2022/04/13 09:37:12;;;;;;;;;;;;;;;18.69;24.08;99806.88;4452964;32;33920;-79
2022/04/13 09:39:39;;;;;;;;;;;;;;;19.47;22.79;99803.34;4444067;32;35193;-82
2022/04/13 09:42:07;;;;;;;;;;;;;;;19.39;22.06;99792.94;4449962;32;33860;-81
2022/04/13 09:44:35;;;;;;;;;;;;;;;19.81;22.24;99790.66;4461359;32;34755;-85
2022/04/13 09:47:09;;;;;;;;;;;;;;;19.74;21.92;99794.28;4459047;32;34921;-84
2022/04/13 09:49:46;;;;;;;;;;;;;;;19.99;21.40;99786.00;4457051;32;33159;-84
2022/04/13 09:52:15;;;;;;;;;;;;;;;19.26;22.60;99791.38;4462225;32;33549;-84
2022/04/13 09:54:46;;;;;;;;;;;;;;;18.46;23.46;99792.22;4467344;32;35262;-80
2022/04/13 09:57:20;;;;;;;;;;;;;;;19.16;23.37;99795.84;4458069;32;34221;-86
2022/04/13 09:59:54;;;;;;;;;;;;;;;18.27;24.27;99801.13;4439882;32;34413;-78
2022/04/13 10:02:40;;;;;;;;;;;;;;;18.21;23.82;99806.44;4451770;32;33276;-81
2022/04/13 10:05:08;;;;;;;;;;;;;;;18.65;23.57;99797.28;4440022;32;33530;-86
2022/04/13 10:07:35;;;;;;;;;;;;;;;19.92;22.66;99782.56;4454575;32;34285;-83
2022/04/13 10:10:04;;;;;;;;;;;;;;;20.09;22.25;99787.59;4468364;32;34673;-82
2022/04/13 10:12:50;;;;;;;;;;;;;;;20.97;22.12;99776.38;4468720;32;33805;-81
2022/04/13 10:15:17;;;;;;;;;;;;;;;20.12;23.44;99793.69;4451842;32;34266;-80
2022/04/13 10:17:44;;;;;;;;;;;;;;;20.89;20.19;99777.41;4454364;32;34000;-80
2022/04/13 10:20:12;;;;;;;;;;;;;;;22.41;19.80;99773.16;4467856;32;34584;-83
2022/04/13 10:22:58;;;;;;;;;;;;;;;21.86;19.78;99784.16;4468896;32;33680;-82
2022/04/13 10:25:27;;;;;;;;;;;;;;;20.89;21.21;99769.50;4468415;32;34657;-80
2022/04/13 10:28:01;;;;;;;;;;;;;;;20.00;21.25;99777.19;4468587;32;34084;-81
2022/04/13 10:30:30;;;;;;;;;;;;;;;19.44;22.43;99778.00;4482211;32;34439;-81
2022/04/13 10:32:59;;;;;;;;;;;;;;;20.55;21.87;99773.66;4484160;32;34288;-81
2022/04/13 10:35:26;;;;;;;;;;;;;;;20.71;21.65;99771.63;4466074;32;33630;-81
2022/04/13 10:37:55;;;;;;;;;;;;;;;19.74;21.34;99767.97;4454180;32;35332;-80
2022/04/13 10:40:23;;;;;;;;;;;;;;;19.90;21.66;99766.81;4468187;32;35301;-80
2022/04/13 10:42:51;;;;;;;;;;;;;;;20.02;21.59;99770.16;4468336;32;34157;-81
2022/04/13 10:45:19;;;;;;;;;;;;;;;19.78;21.80;99750.37;4468457;32;34081;-82
2022/04/13 10:47:52;;;;;;;;;;;;;;;20.00;21.55;99764.03;4468500;32;35259;-81
2022/04/13 10:50:27;;;;;;;;;;;;;;;18.71;23.03;99760.47;4468202;32;35425;-82
2022/04/13 10:52:56;;;;;;;;;;;;;;;18.93;22.44;99750.59;4468325;32;33758;-81
2022/04/13 10:55:23;;;;;;;;;;;;;;;19.50;22.13;99744.59;4468545;32;35157;-82
2022/04/13 10:57:55;;;;;;;;;;;;;;;19.20;22.58;99741.50;4468396;32;34155;-80
2022/04/13 11:00:24;;;;;;;;;;;;;;;19.32;22.27;99743.09;4468539;32;35204;-80
2022/04/13 11:02:55;;;;;;;;;;;;;;;20.49;21.62;99745.66;4454167;32;33987;-76
2022/04/13 11:05:22;;;;;;;;;;;;;;;20.69;21.02;99742.69;4454081;32;33630;-82
2022/04/13 11:07:50;;;;;;;;;;;;;;;19.99;22.00;99722.81;4456348;32;35320;-84
2022/04/13 11:10:18;;;;;;;;;;;;;;;19.76;22.90;99737.22;4438465;32;34500;-82
2022/04/13 11:12:46;;;;;;;;;;;;;;;19.58;22.32;99732.19;4438840;32;33769;-81
2022/04/13 11:15:20;;;;;;;;;;;;;;;20.78;21.72;99726.66;4453575;32;34091;-81
2022/04/13 11:17:47;;;;;;;;;;;;;;;19.87;22.00;99729.16;4454285;32;34528;-80
2022/04/13 11:20:19;;;;;;;;;;;;;;;20.32;22.18;99727.50;4468107;32;34612;-84
2022/04/13 11:23:14;;;;;;;;;;;;;;;20.96;22.09;99717.53;4463239;32;33565;-85
2022/04/13 11:25:58;;;;;;;;;;;;;;;20.84;20.59;99715.16;4452549;32;33938;-84
2022/04/13 11:28:27;;;;;;;;;;;;;;;21.84;22.17;99717.31;4439505;32;34399;-84
2022/04/13 11:31:01;;;;;;;;;;;;;;;20.94;20.63;99707.91;4455236;32;34362;-84
2022/04/13 11:33:49;;;;;;;;;;;;;;;21.63;20.79;99696.75;4468346;32;34395;-84
2022/04/13 11:36:16;;;;;;;;;;;;;;;21.82;20.24;99705.06;4452612;32;32947;-81
2022/04/13 11:39:03;;;;;;;;;;;;;;;20.56;21.10;99706.91;4452477;32;34378;-82
2022/04/13 11:41:31;;;;;;;;;;;;;;;21.51;20.94;99707.56;4458444;32;35635;-82
2022/04/13 11:44:17;;;;;;;;;;;;;;;21.30;22.12;99699.22;4453750;32;34054;-81
2022/04/13 11:46:44;;;;;;;;;;;;;;;22.02;19.52;99700.16;4468147;32;34105;-81
2022/04/13 11:49:12;;;;;;;;;;;;;;;21.73;19.79;99698.22;4457986;32;34427;-82
2022/04/13 11:51:39;;;;;;;;;;;;;;;22.46;21.23;99698.13;4452399;32;34430;-82
2022/04/13 11:54:07;;;;;;;;;;;;;;;22.46;19.28;99700.78;4455667;32;34281;-80
2022/04/13 11:56:36;;;;;;;;;;;;;;;22.15;19.49;99694.59;4468025;32;33782;-81
2022/04/13 11:59:03;;;;;;;;;;;;;;;21.93;20.96;99689.81;4467785;32;34393;-81
2022/04/13 12:01:33;;;;;;;;;;;;;;;21.55;20.92;99696.91;4467869;32;34581;-82
2022/04/13 12:04:03;;;;;;;;;;;;;;;22.22;20.49;99690.88;4456997;32;33820;-83
2022/04/13 12:06:31;;;;;;;;;;;;;;;23.35;18.89;99681.50;4452078;32;33716;-81
2022/04/13 12:08:58;;;;;;;;;;;;;;;23.01;18.95;99677.25;4438315;32;34203;-80
2022/04/13 12:11:39;;;;;;;;;;;;;;;22.42;19.99;99685.06;4452120;32;34925;-83
2022/04/13 12:14:08;;;;;;;;;;;;;;;22.95;20.56;99672.13;4444137;32;33334;-81
2022/04/13 12:16:38;;;;;;;;;;;;;;;22.96;20.02;99668.59;4451229;32;35110;-80
2022/04/13 12:19:09;;;;;;;;;;;;;;;22.22;20.29;99681.19;4466505;32;34240;-82
2022/04/13 12:21:37;;;;;;;;;;;;;;;21.87;21.90;99675.00;4453533;32;34629;-82
2022/04/13 12:24:05;;;;;;;;;;;;;;;22.85;19.51;99663.59;4467852;32;33524;-81
2022/04/13 12:26:34;;;;;;;;;;;;;;;23.23;19.88;99656.31;4453441;32;34061;-82
2022/04/13 12:29:09;;;;;;;;;;;;;;;21.84;20.32;99667.16;4453501;32;34330;-82
2022/04/13 12:31:46;;;;;;;;;;;;;;;21.09;20.55;99654.84;4467710;32;34616;-82
2022/04/13 12:34:14;;;;;;;;;;;;;;;21.11;21.22;99656.56;4467547;32;33658;-81
2022/04/13 12:36:41;;;;;;;;;;;;;;;21.94;19.77;99654.62;4467596;32;34068;-82
2022/04/13 12:39:09;;;;;;;;;;;;;;;21.70;20.01;99644.66;4467794;32;33829;-81
2022/04/13 12:41:37;;;;;;;;;;;;;;;22.32;19.73;99640.41;4467585;32;34352;-81
2022/04/13 12:44:04;;;;;;;;;;;;;;;22.26;19.44;99635.28;4467697;32;33278;-82
2022/04/13 12:46:31;;;;;;;;;;;;;;;21.25;20.79;99643.09;4467564;32;34956;-81
2022/04/13 12:49:03;;;;;;;;;;;;;;;22.52;19.70;99636.34;4453247;32;35419;-82
2022/04/13 12:51:37;;;;;;;;;;;;;;;22.21;19.77;99626.63;4467751;32;34183;-82
2022/04/13 12:54:06;;;;;;;;;;;;;;;22.82;18.82;99629.31;4467635;32;33570;-83
2022/04/13 12:56:34;;;;;;;;;;;;;;;23.56;19.33;99619.94;4467401;32;34124;-82